Accueil
METAR-TAF:

METAR-TAF

Aéroports :

Aéroport de Saragosse

Saragosse, Espagne

latitude: 41-40N, longitude: 001-01W, altitude: 263 m

Observation

Le bulletin a été fait il y a 40 minutes, à 12:30 UTC
Vent 10 kt de nord-ouest, variant entre ouest et nord
Température 27°C
Humidité 34%
Pression 1021 hPa
Visibilité 10 km ou plus
pas de nuages en-dessous de 1500 mètres et pas de cumulonimbus.

METAR: LEZG 221230Z 32010KT 280V350 CAVOK 27/10 Q1021

Heure: 15:10 (13:10 UTC)

Prévision

Le bulletin a été fait il y a 2 heures et 10 minutes, à 11:00 UTC
Prévision valable du 22 à 12 UTC au 23 à 12 UTC
Vent 9 kt de ouest/nord-ouest
Visibilité 10 km ou plus
Quelques nuages à une hauteur de 4000 ft

TAF: LEZG 221100Z 2212/2312 30009KT 9999 FEW040 TX31/2214Z TN16/2305Z

Observations et prévisions météorologiques de plus de 4000 aéroports (messages METAR et TAF).

Les stations disponibles sont représentées par des disques jaunes et rouges sur la carte.

Passer la souris dessus pour voir le nom de la station.

Cliquer dessus pour voir les observations et prévisions météorologiques.

Pour changer de carte: cliquez sur les boutons verts avec une croix noire pour zoomer, sur le bouton vert avec un tiret pour effectuer un zoom arrière, ou sur les flèches vertes pour les cartes adjacentes.


METAR-TAF: